Time;durP1;ratioP1;P1;durP2;ratioP2;P2;SDS_P1;SDS_P2;PMS_P1;PMS_P2;Temp;Humidity;BMP_temperature;BMP_pressure;BME280_temperature;BME280_humidity;BME280_pressure;Samples;Min_cycle;Max_cycle;Signal;HPM_P1;HPM_P2
2021/07/22 00:01:21;;;;;;;4.60;2.17;;;;;;;16.45;61.33;99170.72;5033932;28;20123;-78
2021/07/22 00:03:47;;;;;;;4.28;2.40;;;;;;;16.37;61.30;99167.59;5033762;28;20099;-77
2021/07/22 00:06:13;;;;;;;5.03;2.58;;;;;;;16.35;61.46;99158.94;5034103;28;20463;-77
2021/07/22 00:08:39;;;;;;;4.97;2.25;;;;;;;16.42;61.70;99178.75;5032249;28;20045;-79
2021/07/22 00:11:09;;;;;;;4.28;2.63;;;;;;;16.21;61.92;99149.00;5032569;28;20041;-77
2021/07/22 00:13:35;;;;;;;6.38;2.33;;;;;;;16.29;61.59;99167.06;5033825;28;20057;-75
2021/07/22 00:16:00;;;;;;;4.47;2.33;;;;;;;16.37;61.80;99181.56;5016703;28;20041;-78
2021/07/22 00:18:27;;;;;;;3.67;2.20;;;;;;;16.35;61.88;99180.75;5017704;28;20060;-76
2021/07/22 00:20:52;;;;;;;6.85;2.60;;;;;;;16.33;61.83;99187.84;5026976;28;20033;-77
2021/07/22 00:23:18;;;;;;;6.47;2.40;;;;;;;16.24;61.88;99183.84;5052382;28;20096;-77
2021/07/22 00:25:44;;;;;;;4.18;2.30;;;;;;;16.20;62.18;99177.03;5032527;28;20054;-78
2021/07/22 00:28:10;;;;;;;4.63;2.38;;;;;;;16.18;62.14;99186.75;5033734;28;20052;-78
2021/07/22 00:30:37;;;;;;;4.80;2.38;;;;;;;16.17;62.21;99192.91;4998479;28;20095;-79
2021/07/22 00:33:03;;;;;;;4.15;2.38;;;;;;;16.04;62.25;99176.81;4982205;28;20041;-77
2021/07/22 00:35:29;;;;;;;4.65;2.20;;;;;;;16.07;62.22;99186.31;5014462;28;20095;-78
2021/07/22 00:37:55;;;;;;;5.03;2.40;;;;;;;16.04;62.20;99192.56;5014674;28;20118;-77
2021/07/22 00:40:21;;;;;;;6.50;2.47;;;;;;;16.01;62.58;99199.69;5014720;28;20415;-77
2021/07/22 00:43:03;;;;;;;5.55;2.63;;;;;;;16.03;62.72;99203.09;5014930;28;20037;-77
2021/07/22 00:45:30;;;;;;;3.72;2.08;;;;;;;15.98;62.69;99198.06;4999055;28;20063;-77
2021/07/22 00:47:59;;;;;;;5.90;2.33;;;;;;;16.06;63.05;99213.47;4999018;28;20091;-79
2021/07/22 00:50:25;;;;;;;5.03;2.13;;;;;;;16.05;62.85;99214.41;5033055;28;20082;-78
2021/07/22 00:52:51;;;;;;;2.47;2.10;;;;;;;16.06;63.41;99213.47;5033047;28;20045;-79
2021/07/22 00:55:18;;;;;;;3.58;2.20;;;;;;;15.85;63.09;99181.94;4998689;28;20061;-77
2021/07/22 00:57:45;;;;;;;5.80;2.88;;;;;;;15.97;63.26;99196.34;5015123;28;20056;-78
2021/07/22 01:00:13;;;;;;;4.97;2.50;;;;;;;15.99;63.26;99207.63;5032738;28;20045;-78
2021/07/22 01:02:42;;;;;;;4.45;2.30;;;;;;;15.90;63.38;99203.63;5016603;28;20037;-77
2021/07/22 01:05:09;;;;;;;3.92;2.10;;;;;;;15.94;63.41;99212.22;5005511;28;20210;-79
2021/07/22 01:07:37;;;;;;;3.95;2.30;;;;;;;15.90;63.71;99213.25;5033980;28;20025;-80
2021/07/22 01:10:06;;;;;;;3.15;2.05;;;;;;;15.91;63.53;99225.44;5007113;28;20062;-77
2021/07/22 01:12:32;;;;;;;4.03;2.20;;;;;;;15.90;63.54;99221.97;5031839;28;20037;-79
2021/07/22 01:14:58;;;;;;;3.67;2.13;;;;;;;15.90;63.76;99226.38;4999962;28;20106;-76
2021/07/22 01:17:45;;;;;;;3.30;2.20;;;;;;;15.80;63.92;99207.47;5030579;28;20090;-78
2021/07/22 01:20:22;;;;;;;3.75;2.20;;;;;;;15.88;63.83;99226.44;4997477;28;20504;-76
2021/07/22 01:22:51;;;;;;;6.53;2.50;;;;;;;15.86;64.13;99230.03;5013291;28;20571;-77
2021/07/22 01:25:21;;;;;;;3.05;1.98;;;;;;;15.85;63.92;99225.69;5018324;28;20137;-76
2021/07/22 01:27:50;;;;;;;8.57;2.00;;;;;;;15.83;63.92;99241.47;4994113;28;20140;-77
2021/07/22 01:30:16;;;;;;;5.80;2.10;;;;;;;15.81;63.76;99231.03;4993632;28;20080;-76
2021/07/22 01:32:43;;;;;;;2.83;1.90;;;;;;;15.80;63.91;99231.97;4994009;28;20041;-78
2021/07/22 01:35:11;;;;;;;3.83;2.08;;;;;;;15.84;64.07;99242.34;4993962;28;20052;-77
2021/07/22 01:37:38;;;;;;;4.38;2.05;;;;;;;15.87;64.12;99239.63;4977988;28;20073;-78
2021/07/22 01:40:08;;;;;;;3.20;2.05;;;;;;;15.85;63.92;99241.44;4977914;28;20041;-77
2021/07/22 01:42:34;;;;;;;6.22;2.13;;;;;;;15.80;64.15;99228.47;4994051;28;20116;-78
2021/07/22 01:45:06;;;;;;;2.70;2.05;;;;;;;15.85;63.83;99231.78;4993518;28;20061;-77
2021/07/22 01:47:38;;;;;;;4.90;2.38;;;;;;;15.84;63.87;99223.97;4994537;28;20422;-76
2021/07/22 01:50:04;;;;;;;5.00;2.17;;;;;;;15.78;64.20;99214.56;4993614;28;20041;-78
2021/07/22 01:52:31;;;;;;;4.45;2.20;;;;;;;15.90;64.08;99242.97;4977989;28;20046;-77
2021/07/22 01:54:58;;;;;;;2.42;2.00;;;;;;;15.89;64.04;99241.25;4977719;28;20092;-76
2021/07/22 01:57:25;;;;;;;4.10;2.40;;;;;;;15.81;64.01;99228.41;5011290;28;20041;-77
2021/07/22 01:59:53;;;;;;;5.32;2.17;;;;;;;15.90;64.68;99235.09;4993884;28;20523;-78
2021/07/22 02:02:20;;;;;;;3.22;1.90;;;;;;;15.84;63.84;99223.97;4993827;28;20283;-78
2021/07/22 02:04:47;;;;;;;5.70;2.00;;;;;;;15.90;64.05;99228.97;5010230;28;20049;-77
2021/07/22 02:07:13;;;;;;;3.13;1.70;;;;;;;16.02;64.02;99241.63;4994469;28;20054;-77
2021/07/22 02:09:49;;;;;;;4.30;2.30;;;;;;;16.01;63.70;99231.19;4985665;28;20064;-77
2021/07/22 02:12:18;;;;;;;3.90;2.30;;;;;;;16.06;63.79;99232.72;4987191;28;20065;-76
2021/07/22 02:14:45;;;;;;;4.90;1.90;;;;;;;16.15;63.74;99243.75;5018969;28;20068;-77
2021/07/22 02:17:15;;;;;;;4.00;1.80;;;;;;;16.15;63.59;99246.38;5017475;28;20073;-77
2021/07/22 02:19:41;;;;;;;3.53;1.92;;;;;;;16.22;63.50;99242.59;5016447;28;20064;-77
2021/07/22 02:22:09;;;;;;;5.93;2.40;;;;;;;16.22;63.64;99232.09;4998841;28;20093;-78
2021/07/22 02:24:41;;;;;;;3.53;2.15;;;;;;;16.33;63.51;99244.75;4998465;28;20110;-78
2021/07/22 02:27:18;;;;;;;8.48;2.47;;;;;;;16.41;63.43;99250.56;5035411;28;20042;-76
2021/07/22 02:29:44;;;;;;;5.60;2.63;;;;;;;16.47;63.17;99246.81;5001292;28;20048;-78
2021/07/22 02:32:10;;;;;;;8.63;2.28;;;;;;;16.49;62.92;99237.94;5000824;28;20041;-77
2021/07/22 02:34:36;;;;;;;4.68;2.28;;;;;;;16.69;62.92;99254.63;5016644;28;20048;-78
2021/07/22 02:37:13;;;;;;;3.88;2.13;;;;;;;16.71;62.71;99247.53;5016800;28;20045;-78
2021/07/22 02:39:55;;;;;;;5.18;2.20;;;;;;;16.85;62.53;99257.44;5000643;28;20057;-76
2021/07/22 02:42:21;;;;;;;4.32;2.20;;;;;;;16.91;62.04;99256.31;5016515;28;20047;-77
2021/07/22 02:44:47;;;;;;;3.42;1.90;;;;;;;16.98;61.89;99263.94;5016965;28;20049;-76
2021/07/22 02:47:26;;;;;;;3.00;1.80;;;;;;;17.02;61.82;99254.13;5002223;28;20037;-78
2021/07/22 02:49:51;;;;;;;3.60;2.03;;;;;;;17.12;61.56;99265.91;5016480;28;20052;-78
2021/07/22 02:52:18;;;;;;;4.25;1.92;;;;;;;17.10;61.38;99259.03;5016786;28;20136;-76
2021/07/22 02:54:47;;;;;;;3.92;2.30;;;;;;;17.16;61.29;99277.19;5016955;28;20052;-78
2021/07/22 02:57:13;;;;;;;2.60;1.80;;;;;;;17.23;61.15;99277.75;5000136;28;20041;-77
2021/07/22 02:59:41;;;;;;;5.50;1.95;;;;;;;17.20;61.05;99260.34;5000632;28;20045;-77
2021/07/22 03:02:08;;;;;;;6.53;1.90;;;;;;;17.28;60.78;99268.72;5016494;28;20052;-79
2021/07/22 03:04:34;;;;;;;4.20;2.00;;;;;;;17.30;60.49;99264.25;4984095;28;20041;-80
2021/07/22 03:07:09;;;;;;;3.97;2.03;;;;;;;17.40;60.13;99266.47;5016080;28;20068;-79
2021/07/22 03:09:35;;;;;;;2.78;1.80;;;;;;;17.43;59.88;99282.13;5016788;28;20152;-78
2021/07/22 03:12:02;;;;;;;3.85;1.85;;;;;;;17.51;59.77;99287.03;5001123;28;20540;-78
2021/07/22 03:14:33;;;;;;;3.67;1.65;;;;;;;17.54;59.23;99284.25;5002824;28;20049;-79
2021/07/22 03:17:02;;;;;;;2.90;1.55;;;;;;;17.64;58.85;99293.41;5029433;28;20511;-76
2021/07/22 03:19:40;;;;;;;4.65;1.88;;;;;;;17.63;58.74;99289.06;5000867;28;20155;-79
2021/07/22 03:22:14;;;;;;;3.72;1.80;;;;;;;17.70;58.36;99285.25;5000453;28;20475;-79
2021/07/22 03:24:43;;;;;;;6.82;3.20;;;;;;;17.81;58.10;99289.13;5000247;28;20061;-78
2021/07/22 03:27:46;;;;;;;5.32;3.25;;;;;;;17.91;57.99;99279.91;4952212;28;20047;-79
2021/07/22 03:30:23;;;;;;;6.20;2.25;;;;;;;18.06;57.59;99292.34;5007192;28;20570;-78
2021/07/22 03:33:09;;;;;;;4.80;2.35;;;;;;;18.20;57.22;99302.22;5009213;28;20475;-78
2021/07/22 03:35:41;;;;;;;4.07;1.80;;;;;;;18.25;56.96;99302.00;5034316;28;20454;-81
2021/07/22 03:38:10;;;;;;;4.60;2.15;;;;;;;18.26;56.47;99293.16;5015944;28;20487;-77
2021/07/22 03:40:43;;;;;;;4.38;1.70;;;;;;;18.45;56.24;99303.66;5016547;28;20473;-78
2021/07/22 03:43:09;;;;;;;2.35;1.48;;;;;;;18.47;55.79;99300.94;4999855;28;20420;-80
2021/07/22 03:45:38;;;;;;;5.88;1.50;;;;;;;18.62;55.52;99307.22;5015858;28;20410;-80
2021/07/22 03:48:05;;;;;;;4.25;1.48;;;;;;;18.77;55.09;99327.53;5016085;28;20120;-80
2021/07/22 03:50:31;;;;;;;2.65;1.50;;;;;;;18.93;54.50;99308.31;5003726;28;20072;-78
2021/07/22 03:52:57;;;;;;;2.08;1.60;;;;;;;18.99;54.11;99294.00;5038056;28;20091;-78
2021/07/22 03:55:25;;;;;;;2.78;1.67;;;;;;;19.07;53.54;99295.28;5000555;28;20045;-79
2021/07/22 03:58:09;;;;;;;5.18;2.42;;;;;;;19.33;53.29;99316.81;5020061;28;20693;-80
2021/07/22 04:00:47;;;;;;;6.57;1.88;;;;;;;19.44;52.98;99305.69;5018419;28;20505;-77
2021/07/22 04:03:13;;;;;;;5.38;1.75;;;;;;;19.54;52.55;99322.72;5008826;28;20075;-78
2021/07/22 04:05:43;;;;;;;3.17;1.52;;;;;;;19.60;52.09;99312.78;5039143;28;20046;-80
2021/07/22 04:08:09;;;;;;;3.92;2.10;;;;;;;19.75;51.78;99319.00;5023212;28;20018;-83
2021/07/22 04:10:46;;;;;;;4.25;1.70;;;;;;;19.84;51.07;99314.06;5023557;28;20037;-83
2021/07/22 04:13:38;;;;;;;2.70;1.55;;;;;;;19.88;50.76;99306.03;5025301;28;20061;-81
2021/07/22 04:16:25;;;;;;;3.20;1.77;;;;;;;19.93;50.30;99296.91;5026873;28;20048;-81
2021/07/22 04:19:08;;;;;;;9.02;1.80;;;;;;;19.94;49.90;99287.22;5041001;28;20030;-82
2021/07/22 04:21:51;;;;;;;4.18;1.42;;;;;;;20.29;49.67;99324.84;5055598;28;20036;-82
2021/07/22 04:24:26;;;;;;;6.07;1.58;;;;;;;20.21;49.19;99294.47;5031904;28;20069;-81
2021/07/22 04:27:11;;;;;;;1.95;1.27;;;;;;;20.42;48.39;99311.75;4994018;28;20040;-82
2021/07/22 04:29:48;;;;;;;4.25;1.50;;;;;;;20.60;48.47;99330.16;5017960;28;20030;-82
2021/07/22 04:32:14;;;;;;;3.40;1.40;;;;;;;20.09;47.93;99236.16;4988387;28;20042;-82
2021/07/22 04:35:11;;;;;;;3.92;1.80;;;;;;;20.64;47.64;99320.22;5011510;28;20061;-83
2021/07/22 04:37:56;;;;;;;3.45;1.50;;;;;;;20.58;47.48;99289.75;4981861;28;20111;-80
2021/07/22 04:40:54;;;;;;;2.05;1.45;;;;;;;20.81;46.96;99287.56;4970182;28;20134;-80
2021/07/22 04:43:58;;;;;;;4.38;1.48;;;;;;;21.20;46.80;99323.97;5001524;28;20045;-81
2021/07/22 04:46:56;;;;;;;5.57;1.70;;;;;;;21.07;45.87;99300.03;4982039;28;20048;-81
2021/07/22 04:49:26;;;;;;;6.05;2.10;;;;;;;21.35;45.82;99321.34;4997783;28;20042;-82
2021/07/22 04:52:31;;;;;;;4.15;1.98;;;;;;;21.31;45.32;99298.66;4937807;29;20066;-81
2021/07/22 04:55:17;;;;;;;5.53;1.65;;;;;;;21.56;45.05;99331.53;4926046;29;20055;-82
2021/07/22 04:57:43;;;;;;;2.40;1.40;;;;;;;21.70;44.54;99310.38;4973825;28;20057;-84
2021/07/22 05:00:13;;;;;;;4.53;2.05;;;;;;;21.81;44.39;99301.75;4988842;28;20052;-83
2021/07/22 05:02:46;;;;;;;4.80;1.73;;;;;;;21.93;44.18;99303.63;4982825;28;20038;-81
2021/07/22 05:05:12;;;;;;;8.45;2.15;;;;;;;22.23;43.92;99337.03;4996852;28;20096;-81
2021/07/22 05:07:58;;;;;;;6.32;2.33;;;;;;;22.41;43.21;99334.97;4998393;28;20049;-80
2021/07/22 05:10:32;;;;;;;2.20;1.27;;;;;;;22.24;42.79;99308.75;5001967;28;20049;-83
2021/07/22 05:13:21;;;;;;;3.75;1.50;;;;;;;22.00;42.47;99261.72;4986627;28;20050;-82
2021/07/22 05:16:09;;;;;;;3.75;2.08;;;;;;;22.47;41.92;99325.81;4980671;28;20038;-79
2021/07/22 05:18:53;;;;;;;6.80;2.00;;;;;;;22.53;42.08;99309.50;4982781;28;20152;-81
2021/07/22 05:21:38;;;;;;;3.92;1.63;;;;;;;22.70;41.63;99307.50;5015162;28;20034;-82
2021/07/22 05:24:12;;;;;;;2.00;1.35;;;;;;;23.03;41.09;99335.38;4983097;28;20046;-82
2021/07/22 05:26:45;;;;;;;2.95;1.40;;;;;;;23.14;40.91;99338.13;4998451;28;20149;-82
2021/07/22 05:29:33;;;;;;;3.60;1.65;;;;;;;23.15;40.44;99323.91;5024941;28;20048;-80
2021/07/22 05:32:07;;;;;;;4.75;1.70;;;;;;;23.31;40.15;99307.81;5024455;28;20046;-81
2021/07/22 05:34:52;;;;;;;3.75;1.88;;;;;;;23.71;39.42;99303.28;5020748;28;20144;-81
2021/07/22 05:37:47;;;;;;;7.78;1.73;;;;;;;24.06;38.89;99303.41;5028231;28;20049;-81
2021/07/22 05:40:13;;;;;;;3.80;1.60;;;;;;;24.32;38.02;99287.34;5002794;28;20029;-80
2021/07/22 05:42:40;;;;;;;6.22;1.55;;;;;;;24.77;37.34;99293.81;5015552;28;20053;-83
2021/07/22 05:45:07;;;;;;;3.10;1.27;;;;;;;25.16;36.36;99296.19;4998504;28;20583;-81
2021/07/22 05:47:33;;;;;;;3.95;1.67;;;;;;;25.73;36.00;99326.31;4995281;28;20084;-80
2021/07/22 05:49:59;;;;;;;7.22;1.20;;;;;;;26.68;34.81;99324.03;4980488;28;20049;-80
2021/07/22 05:52:25;;;;;;;4.07;1.58;;;;;;;28.51;32.87;99311.72;5015278;28;20052;-80
2021/07/22 05:54:52;;;;;;;4.85;2.58;;;;;;;30.20;30.42;99292.22;5040777;28;20073;-81
2021/07/22 05:57:20;;;;;;;5.00;2.47;;;;;;;31.82;28.73;99309.78;5020799;28;20076;-80
2021/07/22 05:59:46;;;;;;;5.47;2.88;;;;;;;33.35;27.05;99313.00;4999553;28;20497;-82
2021/07/22 06:02:14;;;;;;;3.83;1.83;;;;;;;34.47;24.79;99297.63;4999860;28;20144;-82
2021/07/22 06:04:40;;;;;;;4.03;2.05;;;;;;;35.39;23.89;99288.44;5017959;28;20045;-83
2021/07/22 06:07:06;;;;;;;4.97;1.60;;;;;;;36.37;22.79;99302.66;4991911;28;20049;-80
2021/07/22 06:09:33;;;;;;;2.47;1.20;;;;;;;37.27;20.94;99272.31;5016617;28;20037;-79
2021/07/22 06:11:59;;;;;;;4.47;1.60;;;;;;;38.40;20.01;99292.75;5037978;28;20056;-83
2021/07/22 06:14:25;;;;;;;2.63;1.67;;;;;;;39.22;19.17;99295.16;5029393;28;20064;-81
2021/07/22 06:16:51;;;;;;;2.60;1.58;;;;;;;39.66;18.29;99234.72;5034434;28;20184;-80
2021/07/22 06:19:17;;;;;;;8.10;1.60;;;;;;;40.51;17.11;99294.28;5053035;28;20038;-79
2021/07/22 06:21:43;;;;;;;2.22;1.38;;;;;;;41.20;16.34;99303.53;5019217;28;20053;-81
2021/07/22 06:24:10;;;;;;;2.33;1.50;;;;;;;41.74;15.99;99300.19;5011540;28;20041;-82
2021/07/22 06:26:36;;;;;;;3.70;1.30;;;;;;;42.17;14.87;99266.41;5005302;28;20097;-81
2021/07/22 06:29:03;;;;;;;2.85;1.33;;;;;;;42.95;14.53;99303.78;5007697;28;20046;-82
2021/07/22 06:31:29;;;;;;;3.50;1.50;;;;;;;43.13;13.80;99295.47;5022519;28;20042;-83
2021/07/22 06:33:56;;;;;;;3.55;1.30;;;;;;;43.04;13.42;99310.56;5004530;28;20497;-82
2021/07/22 06:36:23;;;;;;;2.50;1.80;;;;;;;43.19;13.52;99233.47;5028823;28;20033;-85
2021/07/22 06:39:03;;;;;;;3.90;1.48;;;;;;;44.02;12.93;99298.88;5020071;28;20089;-81
2021/07/22 06:41:31;;;;;;;2.13;1.30;;;;;;;43.78;12.46;99279.84;4987208;28;20041;-83
2021/07/22 06:44:00;;;;;;;3.83;1.27;;;;;;;44.13;12.40;99275.25;5024418;28;20063;-84
2021/07/22 06:46:26;;;;;;;9.50;1.75;;;;;;;44.89;11.35;99286.88;4998846;28;20065;-82
2021/07/22 06:48:54;;;;;;;2.45;1.30;;;;;;;45.28;11.23;99241.03;5015122;28;20042;-81
2021/07/22 06:51:21;;;;;;;3.50;1.40;;;;;;;45.90;11.15;99303.19;4997502;28;20061;-83
2021/07/22 06:53:48;;;;;;;8.15;1.65;;;;;;;46.24;10.36;99298.31;5014694;28;20164;-84
2021/07/22 06:56:14;;;;;;;2.70;1.30;;;;;;;46.41;10.55;99292.69;5013553;28;20042;-84
2021/07/22 06:58:40;;;;;;;4.47;1.60;;;;;;;46.17;10.27;99287.56;4962926;28;20041;-83
2021/07/22 07:01:07;;;;;;;4.18;1.38;;;;;;;46.47;10.37;99294.38;5011601;28;20042;-84
2021/07/22 07:03:33;;;;;;;3.45;1.20;;;;;;;46.93;10.07;99298.53;4981337;28;20095;-82
2021/07/22 07:05:59;;;;;;;3.67;1.42;;;;;;;47.25;9.47;99286.63;4983423;28;20053;-84
2021/07/22 07:08:25;;;;;;;3.85;1.30;;;;;;;47.60;9.04;99293.34;5000162;28;20041;-84
2021/07/22 07:10:51;;;;;;;2.88;1.25;;;;;;;47.54;8.80;99266.88;4982520;28;20061;-84
2021/07/22 07:13:17;;;;;;;3.30;1.20;;;;;;;47.41;9.06;99259.97;4999197;28;20042;-82
2021/07/22 07:15:43;;;;;;;4.05;1.50;;;;;;;47.46;8.93;99284.75;5002646;28;20449;-83
2021/07/22 07:18:24;;;;;;;2.42;1.13;;;;;;;46.86;8.59;99248.47;5002119;28;20492;-82
2021/07/22 07:20:55;;;;;;;3.78;1.20;;;;;;;47.30;8.73;99278.38;4983337;28;20069;-86
2021/07/22 07:23:21;;;;;;;2.33;1.42;;;;;;;47.43;8.46;99273.44;5016317;28;20405;-82
2021/07/22 07:25:47;;;;;;;3.90;1.63;;;;;;;48.03;8.34;99287.66;4998120;28;20054;-82
2021/07/22 07:28:14;;;;;;;4.18;1.40;;;;;;;48.46;8.07;99305.88;5016250;28;20042;-81
2021/07/22 07:30:43;;;;;;;5.10;1.88;;;;;;;49.14;7.85;99299.94;4984590;28;20350;-86
2021/07/22 07:33:10;;;;;;;1.53;1.30;;;;;;;49.73;7.65;99294.69;5012169;28;20044;-80
2021/07/22 07:35:36;;;;;;;1.92;1.40;;;;;;;50.02;7.40;99271.81;5012171;28;20037;-82
2021/07/22 07:38:01;;;;;;;4.18;1.38;;;;;;;50.38;6.90;99254.09;5029657;28;20112;-81
2021/07/22 07:40:29;;;;;;;3.30;1.30;;;;;;;50.82;6.19;99287.41;4981710;28;20078;-82
2021/07/22 07:42:55;;;;;;;6.18;1.60;;;;;;;50.42;6.05;99273.72;4998565;28;20034;-84
2021/07/22 07:45:21;;;;;;;3.95;1.10;;;;;;;50.68;5.93;99262.38;5026662;28;20042;-81
2021/07/22 07:47:47;;;;;;;3.00;1.15;;;;;;;51.05;5.26;99269.97;5007251;28;20042;-83
2021/07/22 07:50:14;;;;;;;6.55;1.33;;;;;;;50.88;5.27;99226.19;4998960;28;20034;-81
2021/07/22 07:52:40;;;;;;;4.30;1.05;;;;;;;50.15;5.39;99198.47;5015941;28;20489;-84
2021/07/22 07:55:07;;;;;;;3.78;1.17;;;;;;;51.01;5.72;99251.50;4998490;28;20516;-82
2021/07/22 07:57:33;;;;;;;2.40;1.13;;;;;;;51.46;5.17;99288.00;5001069;28;20069;-80
2021/07/22 07:59:59;;;;;;;2.47;1.38;;;;;;;51.61;5.16;99269.53;5000288;28;20056;-82
2021/07/22 08:02:26;;;;;;;4.25;1.73;;;;;;;51.25;5.26;99276.38;4997624;28;20425;-82
2021/07/22 08:04:54;;;;;;;4.40;1.90;;;;;;;51.51;4.78;99296.25;4982367;28;20425;-80
2021/07/22 08:07:20;;;;;;;4.28;1.52;;;;;;;51.53;5.19;99277.38;4987590;28;20018;-85
2021/07/22 08:09:47;;;;;;;1.35;1.02;;;;;;;51.48;4.60;99287.69;4983603;28;20095;-81
2021/07/22 08:12:17;;;;;;;2.30;1.50;;;;;;;51.41;5.05;99284.50;4999394;28;20075;-81
2021/07/22 08:14:44;;;;;;;3.38;1.40;;;;;;;50.96;5.17;99257.09;5000533;28;20042;-82
2021/07/22 08:17:15;;;;;;;3.10;1.23;;;;;;;51.66;4.71;99284.13;4999177;28;20056;-79
2021/07/22 08:19:41;;;;;;;3.65;1.60;;;;;;;52.03;4.64;99250.31;5015682;28;20038;-80
2021/07/22 08:22:12;;;;;;;3.90;1.50;;;;;;;52.23;4.32;99286.00;4996228;28;20067;-82
2021/07/22 08:24:39;;;;;;;6.70;1.42;;;;;;;51.47;4.71;99270.28;4973609;28;20120;-82
2021/07/22 08:27:05;;;;;;;2.40;1.30;;;;;;;51.03;4.99;99276.94;5039216;28;20034;-78
2021/07/22 08:29:37;;;;;;;4.18;1.27;;;;;;;50.52;4.79;99268.09;5035745;28;20079;-82
2021/07/22 08:32:03;;;;;;;4.82;1.40;;;;;;;50.04;5.13;99280.63;5001327;28;20167;-83
2021/07/22 08:34:31;;;;;;;1.98;1.10;;;;;;;49.27;5.16;99253.50;5018662;28;20057;-84
2021/07/22 08:36:57;;;;;;;2.58;1.30;;;;;;;49.48;4.95;99265.28;5020017;28;20045;-83
2021/07/22 08:39:23;;;;;;;2.28;1.60;;;;;;;49.91;4.73;99261.97;5005086;28;20045;-80
2021/07/22 08:41:48;;;;;;;2.15;1.10;;;;;;;49.80;5.13;99260.38;5022965;28;20412;-81
2021/07/22 08:44:15;;;;;;;2.50;1.23;;;;;;;50.38;5.06;99261.56;5037561;28;20033;-81
2021/07/22 08:46:42;;;;;;;8.57;1.67;;;;;;;50.41;4.65;99261.81;5022367;28;20075;-82
2021/07/22 08:49:09;;;;;;;3.53;1.67;;;;;;;50.12;5.00;99257.06;5031588;28;20060;-82
2021/07/22 08:51:35;;;;;;;4.45;1.50;;;;;;;50.44;5.22;99266.75;4987125;28;20033;-82
2021/07/22 08:54:01;;;;;;;5.05;1.70;;;;;;;51.05;4.77;99255.31;5025222;28;20064;-82
2021/07/22 08:56:28;;;;;;;6.28;1.33;;;;;;;50.25;4.98;99260.31;5015693;28;20049;-81
2021/07/22 08:58:56;;;;;;;5.25;1.38;;;;;;;49.96;5.30;99266.63;4999723;28;20535;-84
2021/07/22 09:01:26;;;;;;;4.13;1.40;;;;;;;50.62;4.81;99269.91;5033461;28;20152;-81
2021/07/22 09:03:52;;;;;;;1.25;1.15;;;;;;;51.03;5.45;99254.78;5032852;28;20033;-80
2021/07/22 09:06:19;;;;;;;4.47;1.45;;;;;;;50.41;5.23;99272.06;4998331;28;20042;-82
2021/07/22 09:08:46;;;;;;;3.05;1.20;;;;;;;50.23;5.34;99257.81;5031442;28;20056;-80
2021/07/22 09:11:12;;;;;;;2.38;1.13;;;;;;;50.41;5.18;99280.34;5032310;28;20424;-83
2021/07/22 09:13:38;;;;;;;1.98;1.30;;;;;;;50.90;5.12;99270.19;5002382;28;20049;-82
2021/07/22 09:16:04;;;;;;;10.10;1.52;;;;;;;50.51;5.26;99260.09;5032596;28;20049;-81
2021/07/22 09:18:40;;;;;;;2.65;1.10;;;;;;;50.57;5.18;99273.56;5015863;28;20147;-82
2021/07/22 09:21:33;;;;;;;3.22;1.20;;;;;;;49.67;5.35;99259.91;5031771;28;20034;-81
2021/07/22 09:24:06;;;;;;;1.95;1.40;;;;;;;49.96;5.57;99266.63;5012566;28;20049;-83
2021/07/22 09:26:34;;;;;;;3.35;1.10;;;;;;;50.04;5.24;99249.41;4997340;28;20049;-82
2021/07/22 09:29:04;;;;;;;4.20;1.67;;;;;;;48.55;5.80;99268.34;5015576;28;20048;-80
2021/07/22 09:31:31;;;;;;;5.13;2.10;;;;;;;48.42;6.13;99235.81;4999805;28;20052;-82
2021/07/22 09:33:57;;;;;;;7.13;1.73;;;;;;;48.55;5.96;99249.84;5019109;28;20091;-83
2021/07/22 09:36:29;;;;;;;2.83;1.85;;;;;;;49.24;5.96;99257.63;5017296;28;20625;-81
2021/07/22 09:39:20;;;;;;;4.65;1.80;;;;;;;49.37;5.81;99255.38;5022175;28;20033;-84
2021/07/22 09:42:06;;;;;;;2.58;1.20;;;;;;;48.26;5.97;99239.41;5035508;28;20069;-83
2021/07/22 09:44:35;;;;;;;4.50;1.48;;;;;;;48.47;6.60;99264.22;5018319;28;20045;-80
2021/07/22 09:47:05;;;;;;;71.70;4.43;;;;;;;48.73;6.15;99228.31;4987810;28;20094;-82
2021/07/22 09:49:31;;;;;;;3.63;1.65;;;;;;;49.09;6.03;99261.34;5038426;28;20056;-83
2021/07/22 09:52:01;;;;;;;1.95;1.35;;;;;;;48.31;6.33;99257.03;5003662;28;20045;-81
2021/07/22 09:54:38;;;;;;;2.83;1.30;;;;;;;48.83;6.05;99246.75;5020853;28;20126;-81
2021/07/22 09:57:16;;;;;;;3.80;1.40;;;;;;;48.82;6.14;99248.72;5019848;28;20045;-81
2021/07/22 09:59:44;;;;;;;1.35;1.05;;;;;;;47.51;6.53;99253.66;5041577;28;20045;-79
2021/07/22 10:02:24;;;;;;;1.92;1.40;;;;;;;47.34;6.30;99262.97;5021081;28;20047;-78
2021/07/22 10:05:02;;;;;;;2.75;1.17;;;;;;;47.49;6.47;99245.66;5035262;28;20033;-82
2021/07/22 10:07:30;;;;;;;1.45;1.30;;;;;;;47.42;6.11;99253.38;5034135;28;20068;-80
2021/07/22 10:09:58;;;;;;;2.42;1.10;;;;;;;47.71;6.47;99241.84;5015691;28;20041;-84
2021/07/22 10:12:25;;;;;;;1.45;1.10;;;;;;;47.80;6.16;99237.47;5016223;28;20091;-78
2021/07/22 10:14:57;;;;;;;2.63;1.00;;;;;;;48.28;6.34;99247.41;5036307;28;20038;-80
2021/07/22 10:17:33;;;;;;;2.08;1.20;;;;;;;48.33;5.90;99249.34;5039885;28;20037;-81
2021/07/22 10:20:02;;;;;;;4.05;1.20;;;;;;;47.12;6.37;99237.56;5023438;28;20053;-82
2021/07/22 10:22:29;;;;;;;2.42;1.20;;;;;;;47.16;6.68;99246.91;5036856;28;20176;-82
2021/07/22 10:24:55;;;;;;;2.17;1.17;;;;;;;47.58;6.59;99245.16;5019277;28;20053;-82
2021/07/22 10:27:22;;;;;;;2.45;1.20;;;;;;;47.46;6.39;99242.63;5037246;28;20041;-81
2021/07/22 10:29:48;;;;;;;2.63;1.17;;;;;;;46.70;6.38;99248.31;4999769;28;20156;-83
2021/07/22 10:32:34;;;;;;;2.67;1.05;;;;;;;45.76;6.65;99231.38;5000020;28;20037;-83
2021/07/22 10:35:01;;;;;;;2.92;1.10;;;;;;;43.36;8.08;99239.03;5016753;28;20072;-81
2021/07/22 10:37:27;;;;;;;5.70;1.40;;;;;;;41.35;8.58;99244.00;5003113;28;20047;-83
2021/07/22 10:40:10;;;;;;;3.38;1.05;;;;;;;39.38;9.68;99225.88;5021062;28;20505;-83
2021/07/22 10:42:46;;;;;;;4.60;0.90;;;;;;;37.75;10.80;99217.19;5040022;28;20029;-84
2021/07/22 10:45:18;;;;;;;6.63;1.15;;;;;;;36.58;11.59;99256.63;5021444;28;20068;-81
2021/07/22 10:48:03;;;;;;;4.28;1.08;;;;;;;35.65;12.37;99257.34;5027543;28;20105;-82
2021/07/22 10:50:55;;;;;;;7.13;1.00;;;;;;;34.88;13.05;99258.59;5042563;28;20033;-82
2021/07/22 10:53:40;;;;;;;7.13;1.20;;;;;;;33.91;13.58;99259.03;5040557;28;20033;-81
2021/07/22 10:56:12;;;;;;;2.00;0.82;;;;;;;33.00;14.31;99253.16;5020676;28;20513;-81
2021/07/22 10:58:37;;;;;;;5.55;1.00;;;;;;;32.27;14.56;99277.28;5037357;28;20053;-83
2021/07/22 11:01:05;;;;;;;2.85;0.80;;;;;;;31.47;15.30;99231.00;5037153;28;20067;-84
2021/07/22 11:03:38;;;;;;;1.83;0.70;;;;;;;31.34;15.63;99289.75;5003976;28;20049;-81
2021/07/22 11:06:07;;;;;;;1.90;0.90;;;;;;;30.70;16.05;99285.47;5025511;28;20045;-77
2021/07/22 11:08:38;;;;;;;2.60;0.90;;;;;;;30.26;16.69;99288.94;5014380;28;20107;-80
2021/07/22 11:11:09;;;;;;;3.67;1.00;;;;;;;29.73;16.60;99264.56;5022152;28;20092;-82
2021/07/22 11:13:34;;;;;;;5.38;0.90;;;;;;;29.44;16.98;99288.84;5005289;28;20040;-82
2021/07/22 11:16:05;;;;;;;2.42;0.95;;;;;;;29.02;17.58;99266.00;5021440;28;20072;-80
2021/07/22 11:18:43;;;;;;;;;;;;;;;28.85;17.68;99281.81;5027343;28;20037;-79
2021/07/22 11:21:10;;;;;;;3.13;0.90;;;;;;;28.42;17.92;99285.78;5044184;28;19946;-79
2021/07/22 11:23:36;;;;;;;1.38;0.70;;;;;;;28.00;18.38;99280.69;4994526;28;20049;-82
2021/07/22 11:26:03;;;;;;;1.60;0.90;;;;;;;27.86;18.78;99290.78;5026977;28;20107;-81
2021/07/22 11:28:29;;;;;;;1.35;0.80;;;;;;;27.72;19.08;99294.69;5011577;28;20578;-82
2021/07/22 11:31:21;;;;;;;1.70;0.77;;;;;;;27.53;18.40;99292.78;5010698;28;20034;-82
2021/07/22 11:33:48;;;;;;;1.02;0.80;;;;;;;27.31;18.47;99275.97;5041814;28;20045;-83
2021/07/22 11:36:19;;;;;;;2.95;0.95;;;;;;;26.99;18.88;99249.41;5027066;28;20125;-82
2021/07/22 11:38:52;;;;;;;;;;;;;;;27.09;19.09;99293.00;5027074;28;20056;-81
2021/07/22 11:41:19;;;;;;;3.45;0.88;;;;;;;26.68;19.31;99257.34;5026639;28;19977;-82
2021/07/22 11:43:48;;;;;;;3.38;0.95;;;;;;;26.65;20.04;99278.94;5009493;28;20433;-78
2021/07/22 11:46:16;;;;;;;3.05;0.90;;;;;;;26.35;20.47;99240.53;5046561;28;20535;-81
2021/07/22 11:48:44;;;;;;;3.38;1.00;;;;;;;26.40;20.59;99259.69;5049768;28;20033;-80
2021/07/22 11:51:14;;;;;;;4.43;0.90;;;;;;;26.46;20.78;99281.34;5039208;28;20070;-79
2021/07/22 11:53:41;;;;;;;2.97;1.30;;;;;;;26.23;21.39;99263.75;5040074;28;20088;-80